KCGI/CGI METAR and TAF weather

Enter ICAO airport designator
Station Type Date Time Source
KCGI METAR 2019/02/23 01:53 UTC NOAA

KCGI 230153Z AUTO 07008KT 10SM OVC016 07/03 A3014 RMK AO2 SLP206 T00720033


Station Type Date Time Source
KCGI Decoded METAR 2019/02/23 01:53 UTC NOAA

CAPE GIRARDEAU REGIONAL, MO, United States (KCGI) 37-14N 089-35W 102M
Feb 22, 2019 - 08:53 PM EST / 2019.02.23 0153 UTC
Wind: from the ENE (070 degrees) at 9 MPH (8 KT):0
Visibility: 10 mile(s):0
Sky conditions: overcast
Temperature: 45.0 F (7.2 C)
Dew Point: 37.9 F (3.3 C)
Relative Humidity: 76%
Pressure (altimeter): 30.14 in. Hg (1020 hPa)
ob: KCGI 230153Z AUTO 07008KT 10SM OVC016 07/03 A3014 RMK AO2 SLP206 T00720033
cycle: 2

Station Type Date Time Source
KCGI TAF 2019/02/22 20:22 UTC NOAA

TAF
AMD KCGI 222019Z 2220/2318 05009KT P6SM VCSH OVC025
FM230000 07007KT P6SM VCSH OVC015
FM230600 09007KT 5SM -RADZ BR OVC008
FM231200 12006KT 6SM -SHRA BR VCTS BKN008CB


Example: see airport list